sensor_id;sensor_type;location;lat;lon;timestamp;P1;durP1;ratioP1;P2;durP2;ratioP2
44670;SDS011;48397;53.016;-2.260;2023-03-31T00:03:45;13.38;;;2.28;;
44670;SDS011;48397;53.016;-2.260;2023-03-31T00:06:14;13.95;;;2.00;;
44670;SDS011;48397;53.016;-2.260;2023-03-31T00:08:46;18.80;;;3.25;;
44670;SDS011;48397;53.016;-2.260;2023-03-31T00:11:19;13.20;;;2.15;;
44670;SDS011;48397;53.016;-2.260;2023-03-31T00:13:47;13.95;;;1.85;;
44670;SDS011;48397;53.016;-2.260;2023-03-31T00:16:15;12.80;;;2.30;;
44670;SDS011;48397;53.016;-2.260;2023-03-31T00:18:43;12.18;;;2.00;;
44670;SDS011;48397;53.016;-2.260;2023-03-31T00:21:14;8.95;;;1.80;;
44670;SDS011;48397;53.016;-2.260;2023-03-31T00:23:57;11.70;;;2.33;;
44670;SDS011;48397;53.016;-2.260;2023-03-31T00:29:03;10.70;;;1.90;;
44670;SDS011;48397;53.016;-2.260;2023-03-31T00:31:32;12.98;;;2.17;;
44670;SDS011;48397;53.016;-2.260;2023-03-31T00:34:00;9.52;;;2.30;;
44670;SDS011;48397;53.016;-2.260;2023-03-31T00:36:28;10.90;;;2.30;;
44670;SDS011;48397;53.016;-2.260;2023-03-31T00:38:57;16.63;;;2.30;;
44670;SDS011;48397;53.016;-2.260;2023-03-31T00:41:29;13.90;;;3.13;;
44670;SDS011;48397;53.016;-2.260;2023-03-31T00:47:03;13.27;;;2.67;;
44670;SDS011;48397;53.016;-2.260;2023-03-31T00:49:43;10.98;;;2.22;;
44670;SDS011;48397;53.016;-2.260;2023-03-31T00:52:15;11.18;;;2.08;;
44670;SDS011;48397;53.016;-2.260;2023-03-31T00:55:04;10.05;;;2.60;;
44670;SDS011;48397;53.016;-2.260;2023-03-31T00:57:39;10.73;;;2.05;;
44670;SDS011;48397;53.016;-2.260;2023-03-31T01:00:09;12.45;;;2.15;;
44670;SDS011;48397;53.016;-2.260;2023-03-31T01:02:46;9.15;;;2.22;;
44670;SDS011;48397;53.016;-2.260;2023-03-31T01:05:23;10.77;;;2.17;;
44670;SDS011;48397;53.016;-2.260;2023-03-31T01:07:55;10.63;;;2.45;;
44670;SDS011;48397;53.016;-2.260;2023-03-31T01:10:25;10.98;;;2.20;;
44670;SDS011;48397;53.016;-2.260;2023-03-31T01:12:55;10.63;;;2.13;;
44670;SDS011;48397;53.016;-2.260;2023-03-31T01:15:23;8.02;;;2.55;;
44670;SDS011;48397;53.016;-2.260;2023-03-31T01:28:44;13.77;;;2.63;;
44670;SDS011;48397;53.016;-2.260;2023-03-31T01:43:25;14.52;;;3.10;;
44670;SDS011;48397;53.016;-2.260;2023-03-31T01:59:42;12.63;;;2.97;;
44670;SDS011;48397;53.016;-2.260;2023-03-31T02:02:20;7.28;;;2.50;;
44670;SDS011;48397;53.016;-2.260;2023-03-31T02:05:08;10.40;;;2.50;;
44670;SDS011;48397;53.016;-2.260;2023-03-31T02:07:40;10.70;;;3.10;;
44670;SDS011;48397;53.016;-2.260;2023-03-31T02:10:14;12.43;;;3.10;;
44670;SDS011;48397;53.016;-2.260;2023-03-31T02:12:44;10.23;;;3.45;;
44670;SDS011;48397;53.016;-2.260;2023-03-31T02:15:18;9.27;;;3.08;;
44670;SDS011;48397;53.016;-2.260;2023-03-31T02:17:50;16.17;;;4.35;;
44670;SDS011;48397;53.016;-2.260;2023-03-31T02:20:22;12.52;;;3.83;;
44670;SDS011;48397;53.016;-2.260;2023-03-31T02:22:53;9.18;;;3.10;;
44670;SDS011;48397;53.016;-2.260;2023-03-31T02:25:24;11.15;;;3.00;;
44670;SDS011;48397;53.016;-2.260;2023-03-31T02:28:01;6.22;;;2.28;;
44670;SDS011;48397;53.016;-2.260;2023-03-31T02:30:42;9.50;;;2.90;;
44670;SDS011;48397;53.016;-2.260;2023-03-31T02:33:16;8.30;;;2.40;;
44670;SDS011;48397;53.016;-2.260;2023-03-31T02:35:45;7.75;;;2.05;;
44670;SDS011;48397;53.016;-2.260;2023-03-31T02:38:13;6.45;;;1.95;;
44670;SDS011;48397;53.016;-2.260;2023-03-31T02:40:43;6.93;;;2.47;;
44670;SDS011;48397;53.016;-2.260;2023-03-31T02:43:11;6.40;;;1.92;;
44670;SDS011;48397;53.016;-2.260;2023-03-31T02:53:42;7.70;;;2.00;;
44670;SDS011;48397;53.016;-2.260;2023-03-31T03:04:37;5.80;;;1.95;;
44670;SDS011;48397;53.016;-2.260;2023-03-31T03:10:15;7.75;;;2.00;;
44670;SDS011;48397;53.016;-2.260;2023-03-31T03:17:52;4.68;;;2.42;;
44670;SDS011;48397;53.016;-2.260;2023-03-31T03:20:22;7.03;;;1.40;;
44670;SDS011;48397;53.016;-2.260;2023-03-31T03:22:50;3.03;;;1.17;;
44670;SDS011;48397;53.016;-2.260;2023-03-31T03:25:18;7.10;;;1.45;;
44670;SDS011;48397;53.016;-2.260;2023-03-31T03:27:50;5.88;;;1.70;;
44670;SDS011;48397;53.016;-2.260;2023-03-31T03:30:19;4.00;;;1.20;;
44670;SDS011;48397;53.016;-2.260;2023-03-31T03:32:46;1.95;;;1.10;;
44670;SDS011;48397;53.016;-2.260;2023-03-31T03:35:14;4.88;;;1.10;;
44670;SDS011;48397;53.016;-2.260;2023-03-31T03:37:42;5.05;;;1.13;;
44670;SDS011;48397;53.016;-2.260;2023-03-31T03:40:10;4.70;;;1.20;;
44670;SDS011;48397;53.016;-2.260;2023-03-31T03:42:38;2.42;;;0.82;;
44670;SDS011;48397;53.016;-2.260;2023-03-31T03:45:06;4.55;;;1.20;;
44670;SDS011;48397;53.016;-2.260;2023-03-31T03:47:33;2.20;;;1.00;;
44670;SDS011;48397;53.016;-2.260;2023-03-31T03:50:02;2.40;;;1.02;;
44670;SDS011;48397;53.016;-2.260;2023-03-31T03:52:30;2.42;;;1.00;;
44670;SDS011;48397;53.016;-2.260;2023-03-31T03:54:59;1.40;;;0.93;;
44670;SDS011;48397;53.016;-2.260;2023-03-31T03:57:27;3.67;;;1.17;;
44670;SDS011;48397;53.016;-2.260;2023-03-31T03:59:59;4.53;;;1.10;;
44670;SDS011;48397;53.016;-2.260;2023-03-31T04:02:38;2.22;;;0.90;;
44670;SDS011;48397;53.016;-2.260;2023-03-31T04:05:06;4.43;;;1.10;;
44670;SDS011;48397;53.016;-2.260;2023-03-31T04:07:37;4.18;;;1.30;;
44670;SDS011;48397;53.016;-2.260;2023-03-31T04:10:05;3.80;;;1.60;;
44670;SDS011;48397;53.016;-2.260;2023-03-31T04:12:34;3.17;;;1.50;;
44670;SDS011;48397;53.016;-2.260;2023-03-31T04:15:02;2.80;;;1.45;;
44670;SDS011;48397;53.016;-2.260;2023-03-31T04:17:30;4.10;;;1.25;;
44670;SDS011;48397;53.016;-2.260;2023-03-31T04:19:59;3.28;;;1.77;;
44670;SDS011;48397;53.016;-2.260;2023-03-31T04:22:32;3.78;;;1.73;;
44670;SDS011;48397;53.016;-2.260;2023-03-31T04:25:02;3.92;;;1.48;;
44670;SDS011;48397;53.016;-2.260;2023-03-31T04:27:31;3.10;;;1.45;;
44670;SDS011;48397;53.016;-2.260;2023-03-31T04:30:01;3.53;;;1.70;;
44670;SDS011;48397;53.016;-2.260;2023-03-31T04:32:28;3.05;;;1.52;;
44670;SDS011;48397;53.016;-2.260;2023-03-31T04:34:59;3.15;;;1.75;;
44670;SDS011;48397;53.016;-2.260;2023-03-31T04:37:28;6.78;;;2.95;;
44670;SDS011;48397;53.016;-2.260;2023-03-31T04:40:01;6.32;;;2.47;;
44670;SDS011;48397;53.016;-2.260;2023-03-31T04:42:35;5.53;;;2.28;;
44670;SDS011;48397;53.016;-2.260;2023-03-31T04:45:03;7.28;;;2.33;;
44670;SDS011;48397;53.016;-2.260;2023-03-31T04:47:31;8.35;;;2.30;;
44670;SDS011;48397;53.016;-2.260;2023-03-31T04:49:59;5.57;;;2.05;;
44670;SDS011;48397;53.016;-2.260;2023-03-31T04:52:27;4.68;;;1.75;;
44670;SDS011;48397;53.016;-2.260;2023-03-31T04:54:54;4.70;;;2.22;;
44670;SDS011;48397;53.016;-2.260;2023-03-31T04:57:22;5.85;;;2.00;;
44670;SDS011;48397;53.016;-2.260;2023-03-31T04:59:50;5.60;;;2.22;;
44670;SDS011;48397;53.016;-2.260;2023-03-31T05:02:18;4.00;;;2.03;;
44670;SDS011;48397;53.016;-2.260;2023-03-31T05:04:51;5.00;;;2.60;;
44670;SDS011;48397;53.016;-2.260;2023-03-31T05:07:19;3.97;;;1.95;;
44670;SDS011;48397;53.016;-2.260;2023-03-31T05:09:47;3.63;;;1.67;;
44670;SDS011;48397;53.016;-2.260;2023-03-31T05:12:15;4.28;;;1.52;;
44670;SDS011;48397;53.016;-2.260;2023-03-31T05:14:43;3.33;;;1.40;;
44670;SDS011;48397;53.016;-2.260;2023-03-31T05:17:11;5.80;;;1.85;;
44670;SDS011;48397;53.016;-2.260;2023-03-31T05:19:39;5.57;;;1.90;;
44670;SDS011;48397;53.016;-2.260;2023-03-31T05:22:06;6.57;;;2.08;;
44670;SDS011;48397;53.016;-2.260;2023-03-31T05:24:34;5.55;;;1.75;;
44670;SDS011;48397;53.016;-2.260;2023-03-31T05:27:02;4.32;;;2.03;;
44670;SDS011;48397;53.016;-2.260;2023-03-31T05:29:29;6.20;;;2.30;;
44670;SDS011;48397;53.016;-2.260;2023-03-31T05:31:57;5.57;;;2.10;;
44670;SDS011;48397;53.016;-2.260;2023-03-31T05:34:25;4.82;;;2.47;;
44670;SDS011;48397;53.016;-2.260;2023-03-31T05:36:53;5.47;;;2.63;;
44670;SDS011;48397;53.016;-2.260;2023-03-31T05:39:21;6.38;;;3.00;;
44670;SDS011;48397;53.016;-2.260;2023-03-31T05:41:52;5.78;;;2.90;;
44670;SDS011;48397;53.016;-2.260;2023-03-31T05:44:20;9.55;;;3.28;;
44670;SDS011;48397;53.016;-2.260;2023-03-31T05:46:48;8.05;;;2.95;;
44670;SDS011;48397;53.016;-2.260;2023-03-31T05:49:16;9.75;;;2.78;;
44670;SDS011;48397;53.016;-2.260;2023-03-31T05:51:43;7.40;;;3.10;;
44670;SDS011;48397;53.016;-2.260;2023-03-31T05:54:11;7.18;;;2.03;;
44670;SDS011;48397;53.016;-2.260;2023-03-31T05:56:39;5.85;;;2.60;;
44670;SDS011;48397;53.016;-2.260;2023-03-31T05:59:07;6.00;;;2.58;;
44670;SDS011;48397;53.016;-2.260;2023-03-31T06:01:36;6.55;;;2.80;;
44670;SDS011;48397;53.016;-2.260;2023-03-31T06:04:07;6.38;;;2.60;;
44670;SDS011;48397;53.016;-2.260;2023-03-31T06:06:35;6.10;;;2.80;;
44670;SDS011;48397;53.016;-2.260;2023-03-31T06:09:05;5.00;;;2.40;;
44670;SDS011;48397;53.016;-2.260;2023-03-31T06:14:00;4.75;;;2.65;;
44670;SDS011;48397;53.016;-2.260;2023-03-31T06:16:28;5.45;;;2.60;;
44670;SDS011;48397;53.016;-2.260;2023-03-31T06:18:55;7.88;;;2.38;;
44670;SDS011;48397;53.016;-2.260;2023-03-31T06:21:24;7.18;;;2.92;;
44670;SDS011;48397;53.016;-2.260;2023-03-31T06:23:52;4.43;;;2.00;;
44670;SDS011;48397;53.016;-2.260;2023-03-31T06:26:22;6.80;;;2.92;;
44670;SDS011;48397;53.016;-2.260;2023-03-31T06:28:50;7.10;;;3.17;;
44670;SDS011;48397;53.016;-2.260;2023-03-31T06:31:19;8.10;;;3.67;;
44670;SDS011;48397;53.016;-2.260;2023-03-31T06:33:49;8.00;;;2.92;;
44670;SDS011;48397;53.016;-2.260;2023-03-31T06:38:46;12.48;;;3.92;;
44670;SDS011;48397;53.016;-2.260;2023-03-31T06:43:42;7.32;;;2.80;;
44670;SDS011;48397;53.016;-2.260;2023-03-31T06:46:10;7.05;;;3.22;;
44670;SDS011;48397;53.016;-2.260;2023-03-31T06:48:39;6.57;;;3.13;;
44670;SDS011;48397;53.016;-2.260;2023-03-31T06:51:08;8.80;;;3.30;;
44670;SDS011;48397;53.016;-2.260;2023-03-31T06:53:37;11.27;;;3.33;;
44670;SDS011;48397;53.016;-2.260;2023-03-31T06:56:05;9.57;;;3.45;;
44670;SDS011;48397;53.016;-2.260;2023-03-31T06:58:34;7.88;;;3.10;;
44670;SDS011;48397;53.016;-2.260;2023-03-31T07:01:03;7.82;;;2.95;;
44670;SDS011;48397;53.016;-2.260;2023-03-31T07:03:32;11.20;;;3.17;;
44670;SDS011;48397;53.016;-2.260;2023-03-31T07:08:28;9.85;;;3.90;;
44670;SDS011;48397;53.016;-2.260;2023-03-31T07:10:57;9.80;;;3.90;;
44670;SDS011;48397;53.016;-2.260;2023-03-31T07:13:26;10.88;;;4.13;;
44670;SDS011;48397;53.016;-2.260;2023-03-31T07:15:55;12.45;;;4.45;;
44670;SDS011;48397;53.016;-2.260;2023-03-31T07:18:23;9.60;;;3.90;;
44670;SDS011;48397;53.016;-2.260;2023-03-31T07:21:01;11.13;;;3.63;;
44670;SDS011;48397;53.016;-2.260;2023-03-31T07:23:35;10.48;;;3.30;;
44670;SDS011;48397;53.016;-2.260;2023-03-31T07:26:02;9.75;;;3.35;;
44670;SDS011;48397;53.016;-2.260;2023-03-31T07:28:30;7.38;;;3.92;;
44670;SDS011;48397;53.016;-2.260;2023-03-31T07:30:58;4.70;;;2.13;;
44670;SDS011;48397;53.016;-2.260;2023-03-31T07:33:26;8.90;;;3.13;;
44670;SDS011;48397;53.016;-2.260;2023-03-31T07:35:54;8.15;;;3.88;;
44670;SDS011;48397;53.016;-2.260;2023-03-31T07:38:39;7.20;;;2.88;;
44670;SDS011;48397;53.016;-2.260;2023-03-31T07:41:09;7.07;;;2.95;;
44670;SDS011;48397;53.016;-2.260;2023-03-31T07:43:42;5.78;;;2.67;;
44670;SDS011;48397;53.016;-2.260;2023-03-31T07:46:16;9.23;;;2.88;;
44670;SDS011;48397;53.016;-2.260;2023-03-31T07:48:47;11.85;;;3.15;;
44670;SDS011;48397;53.016;-2.260;2023-03-31T07:51:16;6.40;;;2.35;;
44670;SDS011;48397;53.016;-2.260;2023-03-31T07:53:46;8.50;;;2.30;;
44670;SDS011;48397;53.016;-2.260;2023-03-31T07:56:19;6.75;;;2.85;;
44670;SDS011;48397;53.016;-2.260;2023-03-31T07:58:49;6.85;;;2.80;;
44670;SDS011;48397;53.016;-2.260;2023-03-31T08:01:22;7.47;;;2.60;;
44670;SDS011;48397;53.016;-2.260;2023-03-31T08:03:53;7.22;;;2.05;;
44670;SDS011;48397;53.016;-2.260;2023-03-31T08:06:22;6.07;;;2.22;;
44670;SDS011;48397;53.016;-2.260;2023-03-31T08:08:51;6.47;;;2.15;;
44670;SDS011;48397;53.016;-2.260;2023-03-31T08:11:19;7.30;;;2.40;;
44670;SDS011;48397;53.016;-2.260;2023-03-31T08:13:50;5.45;;;2.10;;
44670;SDS011;48397;53.016;-2.260;2023-03-31T08:16:18;7.10;;;2.30;;
44670;SDS011;48397;53.016;-2.260;2023-03-31T08:21:15;7.03;;;2.10;;
44670;SDS011;48397;53.016;-2.260;2023-03-31T08:23:43;4.55;;;1.83;;
44670;SDS011;48397;53.016;-2.260;2023-03-31T08:26:11;5.05;;;2.28;;
44670;SDS011;48397;53.016;-2.260;2023-03-31T08:28:46;6.32;;;2.20;;
44670;SDS011;48397;53.016;-2.260;2023-03-31T08:31:18;5.50;;;2.00;;
44670;SDS011;48397;53.016;-2.260;2023-03-31T08:33:47;4.60;;;2.13;;
44670;SDS011;48397;53.016;-2.260;2023-03-31T08:36:15;7.15;;;2.03;;
44670;SDS011;48397;53.016;-2.260;2023-03-31T08:41:21;5.20;;;2.00;;
44670;SDS011;48397;53.016;-2.260;2023-03-31T08:44:03;8.35;;;2.20;;
44670;SDS011;48397;53.016;-2.260;2023-03-31T08:46:42;2.95;;;1.00;;
44670;SDS011;48397;53.016;-2.260;2023-03-31T08:51:43;1.83;;;1.38;;
44670;SDS011;48397;53.016;-2.260;2023-03-31T09:00:19;2.85;;;1.38;;
44670;SDS011;48397;53.016;-2.260;2023-03-31T09:02:54;5.18;;;1.70;;
44670;SDS011;48397;53.016;-2.260;2023-03-31T09:05:50;3.08;;;1.02;;
44670;SDS011;48397;53.016;-2.260;2023-03-31T09:08:31;4.85;;;1.80;;
44670;SDS011;48397;53.016;-2.260;2023-03-31T09:17:12;3.17;;;1.50;;
44670;SDS011;48397;53.016;-2.260;2023-03-31T09:19:48;5.22;;;2.20;;
44670;SDS011;48397;53.016;-2.260;2023-03-31T09:22:29;5.15;;;2.10;;
44670;SDS011;48397;53.016;-2.260;2023-03-31T09:25:04;3.42;;;2.13;;
44670;SDS011;48397;53.016;-2.260;2023-03-31T09:27:32;4.22;;;1.83;;
44670;SDS011;48397;53.016;-2.260;2023-03-31T09:30:25;8.35;;;2.25;;
44670;SDS011;48397;53.016;-2.260;2023-03-31T09:32:57;3.38;;;1.55;;
44670;SDS011;48397;53.016;-2.260;2023-03-31T09:35:42;4.65;;;1.98;;
44670;SDS011;48397;53.016;-2.260;2023-03-31T09:38:13;5.28;;;1.80;;
44670;SDS011;48397;53.016;-2.260;2023-03-31T09:40:42;3.78;;;2.15;;
44670;SDS011;48397;53.016;-2.260;2023-03-31T09:45:44;4.47;;;1.95;;
44670;SDS011;48397;53.016;-2.260;2023-03-31T09:48:33;3.70;;;1.60;;
44670;SDS011;48397;53.016;-2.260;2023-03-31T09:51:06;11.07;;;2.53;;
44670;SDS011;48397;53.016;-2.260;2023-03-31T09:53:46;4.53;;;2.17;;
44670;SDS011;48397;53.016;-2.260;2023-03-31T09:56:34;4.38;;;2.20;;
44670;SDS011;48397;53.016;-2.260;2023-03-31T09:59:29;4.80;;;2.20;;
44670;SDS011;48397;53.016;-2.260;2023-03-31T10:02:01;6.07;;;1.92;;
44670;SDS011;48397;53.016;-2.260;2023-03-31T10:04:44;3.50;;;1.20;;
44670;SDS011;48397;53.016;-2.260;2023-03-31T10:07:12;2.85;;;1.30;;
44670;SDS011;48397;53.016;-2.260;2023-03-31T10:09:53;2.53;;;1.10;;
44670;SDS011;48397;53.016;-2.260;2023-03-31T10:12:22;2.47;;;1.42;;
44670;SDS011;48397;53.016;-2.260;2023-03-31T10:15:01;3.45;;;1.52;;
44670;SDS011;48397;53.016;-2.260;2023-03-31T10:17:49;3.53;;;1.38;;
44670;SDS011;48397;53.016;-2.260;2023-03-31T10:20:37;3.00;;;1.20;;
44670;SDS011;48397;53.016;-2.260;2023-03-31T10:23:44;2.28;;;1.13;;
44670;SDS011;48397;53.016;-2.260;2023-03-31T10:26:04;1.50;;;0.90;;
44670;SDS011;48397;53.016;-2.260;2023-03-31T10:28:33;1.52;;;0.90;;
44670;SDS011;48397;53.016;-2.260;2023-03-31T10:31:02;4.72;;;1.50;;
44670;SDS011;48397;53.016;-2.260;2023-03-31T10:33:31;3.97;;;1.60;;
44670;SDS011;48397;53.016;-2.260;2023-03-31T10:36:02;2.55;;;1.55;;
44670;SDS011;48397;53.016;-2.260;2023-03-31T10:38:36;2.17;;;1.30;;
44670;SDS011;48397;53.016;-2.260;2023-03-31T10:41:09;5.15;;;2.67;;
44670;SDS011;48397;53.016;-2.260;2023-03-31T10:43:39;3.55;;;2.15;;
44670;SDS011;48397;53.016;-2.260;2023-03-31T10:46:09;3.78;;;2.17;;
44670;SDS011;48397;53.016;-2.260;2023-03-31T10:48:39;4.75;;;2.13;;
44670;SDS011;48397;53.016;-2.260;2023-03-31T10:53:48;5.95;;;2.17;;
44670;SDS011;48397;53.016;-2.260;2023-03-31T10:56:38;5.88;;;2.38;;
44670;SDS011;48397;53.016;-2.260;2023-03-31T11:08:32;4.03;;;1.70;;
44670;SDS011;48397;53.016;-2.260;2023-03-31T11:11:25;6.00;;;1.80;;
44670;SDS011;48397;53.016;-2.260;2023-03-31T11:17:13;4.60;;;2.05;;
44670;SDS011;48397;53.016;-2.260;2023-03-31T11:20:13;4.80;;;1.88;;
44670;SDS011;48397;53.016;-2.260;2023-03-31T11:25:33;3.47;;;1.67;;
44670;SDS011;48397;53.016;-2.260;2023-03-31T11:28:23;3.40;;;1.50;;
44670;SDS011;48397;53.016;-2.260;2023-03-31T11:42:19;1.77;;;1.13;;
44670;SDS011;48397;53.016;-2.260;2023-03-31T11:44:59;3.88;;;1.50;;
44670;SDS011;48397;53.016;-2.260;2023-03-31T11:47:33;4.32;;;1.08;;
44670;SDS011;48397;53.016;-2.260;2023-03-31T11:50:08;2.13;;;1.10;;
44670;SDS011;48397;53.016;-2.260;2023-03-31T11:52:47;0.90;;;0.70;;
44670;SDS011;48397;53.016;-2.260;2023-03-31T11:55:22;3.17;;;1.45;;
44670;SDS011;48397;53.016;-2.260;2023-03-31T12:00:28;2.20;;;0.80;;
44670;SDS011;48397;53.016;-2.260;2023-03-31T12:05:49;5.38;;;1.60;;
44670;SDS011;48397;53.016;-2.260;2023-03-31T12:08:41;6.35;;;2.28;;
44670;SDS011;48397;53.016;-2.260;2023-03-31T12:17:11;4.93;;;2.25;;
44670;SDS011;48397;53.016;-2.260;2023-03-31T12:20:02;3.78;;;1.90;;
44670;SDS011;48397;53.016;-2.260;2023-03-31T12:22:38;2.17;;;1.40;;
44670;SDS011;48397;53.016;-2.260;2023-03-31T12:25:12;4.40;;;2.00;;
44670;SDS011;48397;53.016;-2.260;2023-03-31T12:27:42;4.18;;;1.90;;
44670;SDS011;48397;53.016;-2.260;2023-03-31T12:30:19;3.22;;;2.08;;
44670;SDS011;48397;53.016;-2.260;2023-03-31T12:32:52;2.40;;;1.40;;
44670;SDS011;48397;53.016;-2.260;2023-03-31T12:35:27;3.10;;;2.15;;
44670;SDS011;48397;53.016;-2.260;2023-03-31T12:38:05;5.47;;;1.77;;
44670;SDS011;48397;53.016;-2.260;2023-03-31T12:49:39;3.85;;;3.08;;
44670;SDS011;48397;53.016;-2.260;2023-03-31T13:01:01;2.28;;;1.40;;
44670;SDS011;48397;53.016;-2.260;2023-03-31T13:08:55;3.05;;;0.98;;
44670;SDS011;48397;53.016;-2.260;2023-03-31T13:14:16;1.70;;;1.15;;
44670;SDS011;48397;53.016;-2.260;2023-03-31T13:16:51;1.85;;;1.33;;
44670;SDS011;48397;53.016;-2.260;2023-03-31T13:19:38;1.80;;;1.58;;
44670;SDS011;48397;53.016;-2.260;2023-03-31T13:22:26;2.17;;;1.17;;
44670;SDS011;48397;53.016;-2.260;2023-03-31T13:27:58;1.77;;;1.20;;
44670;SDS011;48397;53.016;-2.260;2023-03-31T13:31:02;1.80;;;1.20;;
44670;SDS011;48397;53.016;-2.260;2023-03-31T13:33:35;1.45;;;1.15;;
44670;SDS011;48397;53.016;-2.260;2023-03-31T13:41:43;0.98;;;0.77;;
44670;SDS011;48397;53.016;-2.260;2023-03-31T13:53:22;1.00;;;0.80;;
44670;SDS011;48397;53.016;-2.260;2023-03-31T14:01:43;3.75;;;1.88;;
44670;SDS011;48397;53.016;-2.260;2023-03-31T14:06:57;5.65;;;1.42;;
44670;SDS011;48397;53.016;-2.260;2023-03-31T14:09:34;5.60;;;1.88;;
44670;SDS011;48397;53.016;-2.260;2023-03-31T14:12:19;2.55;;;1.60;;
44670;SDS011;48397;53.016;-2.260;2023-03-31T14:14:56;3.67;;;1.80;;
44670;SDS011;48397;53.016;-2.260;2023-03-31T14:25:45;5.43;;;1.98;;
44670;SDS011;48397;53.016;-2.260;2023-03-31T14:31:25;2.70;;;1.73;;
44670;SDS011;48397;53.016;-2.260;2023-03-31T14:34:31;1.83;;;1.40;;
44670;SDS011;48397;53.016;-2.260;2023-03-31T14:37:24;2.05;;;1.02;;
44670;SDS011;48397;53.016;-2.260;2023-03-31T14:39:54;4.10;;;1.58;;
44670;SDS011;48397;53.016;-2.260;2023-03-31T14:42:28;2.40;;;1.83;;
44670;SDS011;48397;53.016;-2.260;2023-03-31T14:45:04;2.08;;;1.30;;
44670;SDS011;48397;53.016;-2.260;2023-03-31T14:52:40;2.10;;;1.38;;
44670;SDS011;48397;53.016;-2.260;2023-03-31T14:55:14;2.67;;;1.70;;
44670;SDS011;48397;53.016;-2.260;2023-03-31T14:57:43;3.38;;;1.42;;
44670;SDS011;48397;53.016;-2.260;2023-03-31T15:00:14;2.97;;;1.48;;
44670;SDS011;48397;53.016;-2.260;2023-03-31T15:02:55;3.60;;;1.75;;
44670;SDS011;48397;53.016;-2.260;2023-03-31T15:05:29;4.88;;;2.00;;
44670;SDS011;48397;53.016;-2.260;2023-03-31T15:08:03;3.13;;;1.73;;
44670;SDS011;48397;53.016;-2.260;2023-03-31T15:10:43;2.47;;;1.67;;
44670;SDS011;48397;53.016;-2.260;2023-03-31T15:13:31;4.50;;;1.90;;
44670;SDS011;48397;53.016;-2.260;2023-03-31T15:16:20;1.70;;;1.45;;
44670;SDS011;48397;53.016;-2.260;2023-03-31T15:19:22;2.03;;;1.17;;
44670;SDS011;48397;53.016;-2.260;2023-03-31T15:21:53;4.30;;;1.50;;
44670;SDS011;48397;53.016;-2.260;2023-03-31T15:24:22;2.30;;;1.17;;
44670;SDS011;48397;53.016;-2.260;2023-03-31T15:27:34;2.10;;;1.45;;
44670;SDS011;48397;53.016;-2.260;2023-03-31T15:29:53;2.63;;;1.08;;
44670;SDS011;48397;53.016;-2.260;2023-03-31T15:32:27;2.35;;;1.10;;
44670;SDS011;48397;53.016;-2.260;2023-03-31T15:34:57;2.03;;;1.10;;
44670;SDS011;48397;53.016;-2.260;2023-03-31T15:37:46;1.98;;;1.00;;
44670;SDS011;48397;53.016;-2.260;2023-03-31T15:40:26;2.10;;;1.10;;
44670;SDS011;48397;53.016;-2.260;2023-03-31T15:43:07;2.25;;;1.05;;
44670;SDS011;48397;53.016;-2.260;2023-03-31T15:45:54;3.42;;;1.95;;
44670;SDS011;48397;53.016;-2.260;2023-03-31T15:53:43;3.00;;;1.60;;
44670;SDS011;48397;53.016;-2.260;2023-03-31T15:56:28;1.77;;;1.02;;
44670;SDS011;48397;53.016;-2.260;2023-03-31T15:59:06;3.58;;;1.30;;
44670;SDS011;48397;53.016;-2.260;2023-03-31T16:02:00;1.27;;;1.02;;
44670;SDS011;48397;53.016;-2.260;2023-03-31T16:04:31;1.63;;;1.00;;
44670;SDS011;48397;53.016;-2.260;2023-03-31T16:07:15;1.42;;;0.73;;
44670;SDS011;48397;53.016;-2.260;2023-03-31T16:12:38;1.38;;;0.90;;
44670;SDS011;48397;53.016;-2.260;2023-03-31T16:15:29;2.50;;;1.00;;
44670;SDS011;48397;53.016;-2.260;2023-03-31T16:18:16;1.20;;;0.70;;
44670;SDS011;48397;53.016;-2.260;2023-03-31T16:20:53;1.42;;;1.00;;
44670;SDS011;48397;53.016;-2.260;2023-03-31T16:23:29;0.80;;;0.80;;
44670;SDS011;48397;53.016;-2.260;2023-03-31T16:26:00;1.90;;;1.27;;
44670;SDS011;48397;53.016;-2.260;2023-03-31T16:28:31;1.75;;;1.15;;
44670;SDS011;48397;53.016;-2.260;2023-03-31T16:31:02;3.90;;;1.15;;
44670;SDS011;48397;53.016;-2.260;2023-03-31T16:33:51;1.63;;;1.00;;
44670;SDS011;48397;53.016;-2.260;2023-03-31T16:36:20;2.55;;;1.40;;
44670;SDS011;48397;53.016;-2.260;2023-03-31T16:38:52;3.40;;;1.85;;
44670;SDS011;48397;53.016;-2.260;2023-03-31T16:41:20;2.35;;;1.30;;
44670;SDS011;48397;53.016;-2.260;2023-03-31T16:43:49;2.40;;;1.48;;
44670;SDS011;48397;53.016;-2.260;2023-03-31T16:46:21;3.70;;;1.85;;
44670;SDS011;48397;53.016;-2.260;2023-03-31T16:48:51;3.08;;;1.48;;
44670;SDS011;48397;53.016;-2.260;2023-03-31T16:51:29;1.42;;;0.93;;
44670;SDS011;48397;53.016;-2.260;2023-03-31T16:53:58;2.28;;;1.23;;
44670;SDS011;48397;53.016;-2.260;2023-03-31T16:56:26;3.05;;;1.23;;
44670;SDS011;48397;53.016;-2.260;2023-03-31T16:58:55;1.85;;;0.95;;
44670;SDS011;48397;53.016;-2.260;2023-03-31T17:01:23;2.55;;;1.23;;
44670;SDS011;48397;53.016;-2.260;2023-03-31T17:03:52;3.33;;;1.30;;
44670;SDS011;48397;53.016;-2.260;2023-03-31T17:06:22;1.73;;;0.90;;
44670;SDS011;48397;53.016;-2.260;2023-03-31T17:08:51;2.30;;;1.10;;
44670;SDS011;48397;53.016;-2.260;2023-03-31T17:11:18;2.00;;;1.25;;
44670;SDS011;48397;53.016;-2.260;2023-03-31T17:13:50;3.75;;;1.02;;
44670;SDS011;48397;53.016;-2.260;2023-03-31T17:16:18;1.48;;;1.27;;
44670;SDS011;48397;53.016;-2.260;2023-03-31T17:19:02;2.53;;;1.10;;
44670;SDS011;48397;53.016;-2.260;2023-03-31T17:21:30;1.63;;;1.10;;
44670;SDS011;48397;53.016;-2.260;2023-03-31T17:23:58;3.90;;;1.60;;
44670;SDS011;48397;53.016;-2.260;2023-03-31T17:26:29;2.00;;;1.40;;
44670;SDS011;48397;53.016;-2.260;2023-03-31T17:28:56;2.08;;;1.33;;
44670;SDS011;48397;53.016;-2.260;2023-03-31T17:31:26;2.55;;;1.50;;
44670;SDS011;48397;53.016;-2.260;2023-03-31T17:33:55;2.53;;;1.38;;
44670;SDS011;48397;53.016;-2.260;2023-03-31T17:36:24;3.22;;;1.65;;
44670;SDS011;48397;53.016;-2.260;2023-03-31T17:38:53;3.30;;;1.42;;
44670;SDS011;48397;53.016;-2.260;2023-03-31T17:41:21;1.35;;;1.13;;
44670;SDS011;48397;53.016;-2.260;2023-03-31T17:46:16;6.40;;;1.60;;
44670;SDS011;48397;53.016;-2.260;2023-03-31T17:48:45;3.97;;;1.52;;
44670;SDS011;48397;53.016;-2.260;2023-03-31T17:53:42;4.38;;;1.77;;
44670;SDS011;48397;53.016;-2.260;2023-03-31T17:56:11;8.20;;;2.58;;
44670;SDS011;48397;53.016;-2.260;2023-03-31T17:58:40;2.15;;;1.40;;
44670;SDS011;48397;53.016;-2.260;2023-03-31T18:03:37;2.05;;;1.42;;
44670;SDS011;48397;53.016;-2.260;2023-03-31T18:08:34;4.05;;;2.42;;
44670;SDS011;48397;53.016;-2.260;2023-03-31T18:11:03;2.88;;;2.08;;
44670;SDS011;48397;53.016;-2.260;2023-03-31T18:13:32;4.60;;;2.70;;
44670;SDS011;48397;53.016;-2.260;2023-03-31T18:16:00;5.82;;;2.33;;
44670;SDS011;48397;53.016;-2.260;2023-03-31T18:18:29;3.28;;;1.70;;
44670;SDS011;48397;53.016;-2.260;2023-03-31T18:21:01;3.15;;;1.90;;
44670;SDS011;48397;53.016;-2.260;2023-03-31T18:23:30;2.55;;;1.75;;
44670;SDS011;48397;53.016;-2.260;2023-03-31T18:25:58;3.90;;;2.60;;
44670;SDS011;48397;53.016;-2.260;2023-03-31T18:28:27;4.15;;;2.95;;
44670;SDS011;48397;53.016;-2.260;2023-03-31T18:33:22;4.20;;;2.00;;
44670;SDS011;48397;53.016;-2.260;2023-03-31T18:35:51;4.68;;;1.75;;
44670;SDS011;48397;53.016;-2.260;2023-03-31T18:38:20;4.28;;;1.95;;
44670;SDS011;48397;53.016;-2.260;2023-03-31T18:40:49;3.55;;;1.98;;
44670;SDS011;48397;53.016;-2.260;2023-03-31T18:43:19;4.00;;;2.42;;
44670;SDS011;48397;53.016;-2.260;2023-03-31T18:45:51;2.97;;;1.45;;
44670;SDS011;48397;53.016;-2.260;2023-03-31T18:48:21;2.13;;;1.60;;
44670;SDS011;48397;53.016;-2.260;2023-03-31T18:50:50;5.40;;;1.88;;
44670;SDS011;48397;53.016;-2.260;2023-03-31T18:53:19;2.80;;;1.92;;
44670;SDS011;48397;53.016;-2.260;2023-03-31T18:55:49;5.82;;;2.92;;
44670;SDS011;48397;53.016;-2.260;2023-03-31T18:58:18;3.42;;;2.38;;